EST,Max TemperatureF,Mean TemperatureF,Min TemperatureF,Max Dew PointF,MeanDew PointF,Min DewpointF,Max Humidity, Mean Humidity, Min Humidity, Max Sea Level PressureIn, Mean Sea Level PressureIn, Min Sea Level PressureIn, Max VisibilityMiles, Mean VisibilityMiles, Min VisibilityMiles, Max Wind SpeedMPH, Mean Wind SpeedMPH, Max Gust SpeedMPH,PrecipitationIn, CloudCover, Events, WindDirDegrees
2009-1-1,30,24,19,19,16,14,86,74,60,30.34,30.14,29.82,10,10,10,17,8,22,0.00,5,,176
2009-1-2,32,28,21,23,20,14,80,71,59,29.97,29.80,29.72,10,10,10,23,10,31,0.00,2,,265
2009-1-3,32,23,14,21,18,14,100,77,55,30.13,30.08,30.03,10,9,7,15,4,23,0.00,3,,101
2009-1-4,35,34,32,36,31,21,100,92,64,30.11,29.94,29.86,10,6,0,21,10,26,0.00,8,Fog,185
2009-1-5,30,24,19,18,17,14,86,74,59,30.23,30.17,30.04,10,10,10,13,8,20,0.00,1,,268
2009-1-6,30,21,12,27,19,12,100,86,69,29.97,29.77,29.53,10,9,2,15,3,20,0.00,5,Snow,102
2009-1-7,32,30,26,30,28,23,100,96,80,29.41,29.26,29.18,7,3,1,17,3,23,0.00,8,Snow,259
2009-1-8,28,24,19,23,20,16,100,90,80,29.90,29.66,29.43,10,5,0,18,10,24,0.00,8,Snow,252
2009-1-9,23,16,8,23,17,7,100,93,86,30.11,30.05,29.96,10,5,0,8,6,,0.00,7,Snow,169
2009-1-10,24,22,21,23,22,19,100,96,93,30.10,30.02,29.95,7,2,0,13,8,16,0.00,8,Snow,36
2009-1-11,26,16,5,25,16,3,100,92,74,30.11,30.08,30.02,10,5,0,8,2,,0.00,8,Fog-Snow,247
2009-1-12,28,24,21,28,21,18,100,90,80,30.18,30.08,29.88,10,5,1,10,5,,0.00,8,Snow,198
2009-1-13,32,20,3,32,18,0,100,85,63,30.15,29.94,29.77,10,6,2,20,11,31,0.00,7,Snow,289
2009-1-14,12,6,1,9,4,0,92,87,73,30.20,30.07,29.97,10,5,1,10,3,,0.00,7,Snow,81
2009-1-15,10,-2,-13,9,-6,-17,92,80,62,30.52,30.40,30.26,10,6,1,18,4,26,0.00,5,Snow,255
2009-1-16,8,-2,-13,0,-13,-18,84,71,39,30.62,30.56,30.48,10,6,1,10,7,,0.00,4,Snow,207
2009-1-17,26,8,-9,23,6,-17,100,76,56,30.44,29.96,29.65,10,7,1,20,9,24,0.00,6,Snow,199
2009-1-18,23,18,14,23,15,12,100,85,68,29.75,29.71,29.66,10,5,1,16,8,21,0.00,7,Snow,260
2009-1-19,23,8,-7,14,7,-13,100,86,63,29.83,29.76,29.73,10,6,0,7,1,,0.00,4,Fog-Snow,314
2009-1-20,17,5,-7,12,-1,-9,100,79,49,30.05,29.98,29.85,10,7,0,9,1,,0.00,0,Fog-Snow,337
2009-1-21,24,14,5,16,11,3,100,82,63,30.03,29.97,29.90,10,9,3,13,6,16,0.00,2,Snow,214
2009-1-22,30,20,10,23,19,10,100,89,69,29.94,29.89,29.85,10,5,0,9,5,,0.00,2,Fog,205
2009-1-23,33,22,12,30,24,10,100,89,69,30.11,29.85,29.70,10,5,0,23,7,29,0.00,5,Fog-Snow,271
2009-1-24,23,14,3,19,9,0,93,74,63,30.39,30.33,30.17,10,9,4,12,7,16,0.00,6,Snow,322
2009-1-25,17,6,-5,7,0,-9,92,78,62,30.34,30.31,30.29,10,10,10,10,6,,0.00,3,,222
2009-1-26,21,10,-2,9,2,-6,92,72,54,30.43,30.39,30.35,10,9,7,9,4,,0.00,4,,223
2009-1-27,21,13,5,14,8,1,92,72,58,30.44,30.32,30.08,10,10,3,7,2,,0.00,4,Snow,86
2009-1-28,23,18,10,18,14,5,93,83,68,30.05,29.91,29.83,10,7,1,13,6,16,0.00,5,Snow,313
2009-1-29,28,19,10,23,17,7,100,85,69,29.94,29.86,29.82,10,8,4,14,10,21,0.00,6,Snow,227
2009-1-30,21,18,14,14,12,9,86,77,63,30.07,29.95,29.87,10,7,2,17,10,24,0.00,6,Snow,264
2009-1-31,30,16,1,25,10,-2,92,79,68,30.07,29.94,29.68,10,9,2,20,9,24,0.00,5,Snow,203